Terminal Aerodrome Forecast
Issued by NWS Wilmington, NC

Home | Current Version | Previous Version | Text Only | Print | Product List | Glossary On
Versions: 1 2 3 4 5 6 7 8 9 10 11 12 13 14
000
FTUS42 KILM 281120
TAFMYR
TAF
KMYR 281120Z 2812/0112 00000KT 4SM BR VCSH OVC020
     FM281300 14006KT P6SM BKN045
     FM282000 19011KT P6SM SKC
     FM010400 19010KT P6SM BKN040
     FM010500 20008KT 5SM BR BKN003=

USA.gov is the U.S. government's official web portal to all federal, state and local government web resources and services.